Latest Weather Observations for Thredbo Top Station

IDN60901

Issued at 8:41 am EST Tuesday 7 April 2020 (issued every 10 minutes, with the page automatically refreshed every 10 minutes)

About weather observations | Map of Canberra area stations | Latest observations for Canberra area | Other Formats
Station Details ID: 071032 Name: THREDBO AWS Lat: -36.49 Lon: 148.29 Height: 1957.0 m
Data from the previous 72 hours. | See also: Recent months at Thredbo Top Station
Date/Time
EST
Temp
°C
App
Temp
°C
Dew
Point
°C
Rel
Hum
%
Delta-T
°C
Wind Press
QNH
hPa
Press
MSL
hPa
Rain since
9am
mm
Dir  Spd
km/h
Gust
km/h
Spd
kts
Gust
kts
07/08:30am 7.2 4.3 -1.2 55 3.6 N 4 9 2 5 1023.9 1020.5 0.2
07/08:00am 7.0 4.0 -4.7 43 4.6 NNE 2 4 1 2 1023.5 1020.1 0.2
07/07:30am 4.4 0.5 -4.3 53 3.4 WNW 7 11 4 6 1023.4 1020.0 0.2
07/07:00am 2.2 -2.0 -3.9 64 2.4 NW 9 13 5 7 1023.1 1019.7 0.2
07/06:30am 1.2 -4.4 -3.1 73 1.7 WNW 17 22 9 12 1022.9 1019.5 0.2
07/06:00am 1.0 -3.6 -8.2 50 3.2 W 9 13 5 7 1022.7 1019.2 0.2
07/05:30am 1.8 -3.1 -7.0 52 3.2 W 11 17 6 9 1022.4 1019.0 0.2
07/05:00am 2.4 -3.1 -5.2 57 2.9 W 15 17 8 9 1022.4 1019.0 0.2
07/04:30am 1.5 -4.8 -3.6 69 2.0 WNW 20 24 11 13 1022.4 1019.0 0.2
07/04:00am 2.6 -2.8 -4.4 60 2.8 W 15 19 8 10 1022.3 1018.9 0.2
07/03:30am 2.0 -3.6 -3.1 69 2.0 WNW 17 22 9 12 1022.3 1018.9 0.2
07/03:00am 1.7 -4.6 -1.2 81 1.2 WNW 22 26 12 14 1022.3 1018.9 0.2
07/02:30am 1.6 -5.1 -1.3 81 1.2 WNW 24 30 13 16 1022.4 1019.0 0.2
07/02:00am 1.5 -4.2 -3.7 68 2.1 WNW 17 22 9 12 1022.7 1019.2 0.2
07/01:30am 0.8 -2.9 -2.9 76 1.5 WNW 7 15 4 8 1022.7 1019.2 0.2
07/01:00am 0.7 -3.0 -0.3 93 0.4 NW 9 20 5 11 1022.8 1019.4 0.2
07/12:30am -0.4 -4.0 -2.4 86 0.8 NW 7 13 4 7 1022.9 1019.5 0.2
07/12:00am -1.3 -6.0 -1.7 97 0.1 NW 13 17 7 9 1022.8 1019.4 0.2
 
Date/Time
EST
Temp
°C
App
Temp
°C
Dew
Point
°C
Rel
Hum
%
Delta-T
°C
Wind Press
QNH
hPa
Press
MSL
hPa
Rain since
9am
mm
Dir  Spd
km/h
Gust
km/h
Spd
kts
Gust
kts
06/11:30pm -2.1 -5.7 -2.4 98 0.0 NW 7 17 4 9 1022.9 1019.5 0.2
06/11:00pm -1.5 -7.0 -1.8 98 0.0 NNW 17 20 9 11 1022.9 1019.5 0.2
06/10:30pm -0.8 -3.3 -1.2 97 0.1 W 2 7 1 4 1023.3 1019.9 0.2
06/10:00pm -0.2 -5.1 -0.5 98 0.1 NNW 15 20 8 11 1023.0 1019.6 0.2
06/09:30pm -0.4 -2.9 -0.7 98 0.1 NNW 2 4 1 2 1023.3 1019.9 0.2
06/09:00pm -1.5 -6.2 -1.9 97 0.1 NW 13 15 7 8 1023.0 1019.6 0.2
06/08:30pm -0.6 -3.1 -1.0 97 0.1 NNW 2 6 1 3 1023.0 1019.6 0.2
06/08:00pm -0.9 -4.4 -1.3 97 0.1 WNW 7 11 4 6 1022.7 1019.2 0.2
06/07:30pm 0.8 -1.9 0.5 98 0.1 W 4 6 2 3 1022.7 1019.2 0.2
06/07:00pm 1.9 -1.5 1.6 98 0.1 SW 9 15 5 8 1022.3 1018.9 0.2
06/06:30pm 1.9 -1.0 1.5 97 0.2 WSW 6 9 3 5 1021.9 1018.5 0.2
06/06:00pm 1.8 -1.1 1.4 97 0.2 WSW 6 7 3 4 1021.7 1018.2 0.2
06/05:30pm 3.0 0.3 2.6 97 0.2 W 6 9 3 5 1021.6 1018.1 0.2
06/05:00pm 3.4 0.6 3.0 97 0.2 WSW 7 13 4 7 1021.3 1017.8 0.2
06/04:30pm 4.5 1.0 3.5 93 0.5 SW 11 17 6 9 1021.2 1017.7 0.2
06/04:00pm 5.1 2.1 4.2 94 0.4 SW 9 17 5 9 1021.1 1017.6 0.2
06/03:30pm 5.0 1.9 3.8 92 0.6 W 9 19 5 10 1021.0 1017.5 0.2
06/03:00pm 4.3 0.7 2.7 89 0.7 SW 11 17 6 9 1020.8 1017.3 0.2
06/02:30pm 5.2 2.0 2.9 85 1.1 SW 9 19 5 10 1020.5 1017.0 0.2
06/02:00pm 5.4 2.2 3.3 86 1.0 W 9 17 5 9 1020.2 1016.7 0.0
06/01:30pm 5.0 0.9 4.1 94 0.4 WNW 15 22 8 12 1020.1 1016.6 0.0
06/01:00pm 5.1 1.0 4.4 95 0.3 NW 15 24 8 13 1019.9 1016.3 0.0
06/12:30pm 4.2 -1.0 3.8 97 0.2 NW 20 30 11 16 1020.0 1016.5 0.0
06/12:00pm 4.2 -0.8 3.8 97 0.2 NW 19 28 10 15 1020.0 1016.5 0.0
06/11:30am 3.7 -0.6 3.3 97 0.2 WNW 15 28 8 15 1020.1 1016.6 0.0
06/11:00am 2.8 -1.6 2.5 98 0.1 NW 15 33 8 18 1019.9 1016.3 0.0
06/10:30am 1.9 -3.4 1.6 98 0.1 NW 19 32 10 17 1019.7 1016.2 0.0
06/10:00am 2.2 -2.0 1.9 98 0.1 WNW 13 24 7 13 1019.7 1016.2 0.0
06/09:30am 1.9 -3.1 1.6 98 0.1 NW 17 26 9 14 1019.6 1016.1 0.0
06/09:00am 2.2 -2.0 1.9 98 0.1 WNW 13 30 7 16 1019.4 1015.8 10.6
06/08:30am 2.8 -2.4 2.5 98 0.1 WNW 19 28 10 15 1019.1 1015.6 10.6
06/08:00am 2.5 -2.7 2.2 98 0.1 WNW 19 26 10 14 1018.7 1015.1 10.6
06/07:30am 2.6 -2.3 2.3 98 0.1 WNW 17 24 9 13 1018.4 1014.8 10.4
06/07:00am 2.2 -3.3 1.9 98 0.1 WNW 20 28 11 15 1017.8 1014.2 9.8
06/06:30am 1.9 -6.5 1.6 98 0.1 WNW 35 54 19 29 1017.3 1013.7 9.8
06/06:00am 1.8 -8.3 1.5 98 0.1 WNW 44 57 24 31 1016.6 1012.9 9.8
06/05:30am 2.0 -7.9 1.7 98 0.1 NW 43 57 23 31 1016.0 1012.3 9.8
06/05:00am 2.1 -6.6 1.8 98 0.1 WNW 37 56 20 30 1016.0 1012.3 9.6
06/04:30am 2.3 -6.8 2.0 98 0.1 WNW 39 57 21 31 1015.7 1012.0 9.6
06/04:00am 2.9 -6.1 2.6 98 0.1 NW 39 57 21 31 1015.1 1011.4 9.2
06/03:30am 2.8 -5.1 2.5 98 0.1 NW 33 52 18 28 1014.9 1011.1 9.0
06/03:00am 2.9 -6.5 2.6 98 0.1 NW 41 61 22 33 1014.4 1010.6 9.0
06/02:30am 2.7 -7.6 2.4 98 0.1 NW 46 65 25 35 1014.4 1010.6 8.6
06/02:00am 2.8 -7.0 2.5 98 0.1 NW 43 65 23 35 1014.3 1010.5 8.4
06/01:30am 3.0 -8.8 2.7 98 0.1 WNW 54 72 29 39 - - 8.2
06/01:04am 2.8 -8.3 2.5 98 0.1 NW 50 69 27 37 - - 7.8
06/01:00am 2.8 -8.7 2.5 98 0.1 NW 52 69 28 37 - - 7.8
06/12:36am 2.7 -8.4 2.4 98 0.1 NW 50 69 27 37 - - 7.6
06/12:30am 2.7 -8.8 2.4 98 0.1 NW 52 69 28 37 - - 7.6
06/12:12am 2.7 -8.8 2.4 98 0.1 NW 52 70 28 38 - - 7.4
06/12:00am 2.6 -9.3 2.3 98 0.1 NW 54 69 29 37 - - 7.2
 
Date/Time
EST
Temp
°C
App
Temp
°C
Dew
Point
°C
Rel
Hum
%
Delta-T
°C
Wind Press
QNH
hPa
Press
MSL
hPa
Rain since
9am
mm
Dir  Spd
km/h
Gust
km/h
Spd
kts
Gust
kts
05/11:30pm 2.5 -9.4 2.2 98 0.1 NW 54 76 29 41 - - 7.0
05/11:03pm 2.4 -9.1 2.1 98 0.1 NW 52 70 28 38 - - 6.8
05/11:00pm 2.4 -9.5 2.1 98 0.1 NW 54 69 29 37 - - 6.6
05/10:33pm 2.2 -11.1 1.9 98 0.1 NW 61 80 33 43 - - 6.6
05/10:30pm 2.2 -11.8 1.9 98 0.1 NW 65 80 35 43 - - 6.6
05/10:00pm 2.2 -12.8 1.9 98 0.1 NW 70 91 38 49 - - 5.6
05/09:30pm 2.1 -13.3 1.8 98 0.1 NW 72 93 39 50 - - 4.6
05/09:00pm 2.2 -13.5 1.9 98 0.1 NW 74 93 40 50 - - 4.2
05/08:32pm 1.9 -13.5 1.6 98 0.1 NW 72 91 39 49 - - 3.4
05/08:30pm 2.1 -13.7 1.8 98 0.1 NW 74 91 40 49 - - 3.2
05/08:00pm 1.8 -13.6 1.5 98 0.1 NW 72 93 39 50 - - 2.8
05/07:30pm 1.8 -13.6 1.5 98 0.1 NNW 72 96 39 52 - - 2.2
05/07:08pm 1.6 -13.9 1.3 98 0.1 NNW 72 95 39 51 - - 1.8
05/07:00pm 1.6 -13.5 1.3 98 0.1 NNW 70 85 38 46 - - 1.8
05/06:30pm 1.5 -14.4 1.2 98 0.1 NW 74 93 40 50 - - 1.4
05/06:02pm 1.3 -16.1 1.0 98 0.1 NW 82 100 44 54 - - 1.2
05/06:00pm 1.3 -16.1 1.0 98 0.1 NW 82 95 44 51 - - 1.2
05/05:37pm 1.1 -15.6 0.8 98 0.1 NW 78 96 42 52 - - 1.2
05/05:30pm 1.0 -16.1 0.7 98 0.1 NW 80 93 43 50 - - 1.0
05/05:00pm 0.7 -16.8 0.4 98 0.1 NW 82 104 44 56 - - 0.8
05/04:34pm 0.4 -17.7 0.1 98 0.1 NW 85 104 46 56 - - 0.6
05/04:30pm 0.5 -17.6 0.2 98 0.1 NW 85 100 46 54 - - 0.6
05/04:00pm 0.1 -17.7 -0.2 98 0.1 NW 83 106 45 57 - - 0.6
05/03:35pm 0.1 -18.4 -0.2 98 0.1 NNW 87 106 47 57 - - 0.4
05/03:30pm 0.1 -18.4 -0.2 98 0.1 NNW 87 102 47 55 - - 0.4
05/03:04pm 0.1 -18.1 -0.2 98 0.1 NW 85 104 46 56 - - 0.4
05/03:00pm 0.1 -17.7 -0.2 98 0.1 NW 83 100 45 54 - - 0.4
05/02:37pm 0.1 -17.7 -0.2 98 0.1 NW 83 102 45 55 - - 0.2
05/02:30pm 0.1 -18.1 -0.2 98 0.1 NW 85 102 46 55 - - 0.2
05/02:11pm 0.0 -17.8 -0.3 98 0.1 NW 83 102 45 55 - - 0.2
05/02:00pm 0.0 -18.2 -0.3 98 0.1 NW 85 100 46 54 - - 0.2
05/01:38pm -0.1 -17.7 -0.4 98 0.1 NW 82 100 44 54 - - 0.2
05/01:30pm -0.2 -17.5 -0.5 98 0.1 NW 80 95 43 51 - - 0.2
05/01:00pm -0.5 -15.9 -0.8 98 0.1 NW 70 89 38 48 - - 0.2
05/12:43pm -0.7 -15.6 -1.0 98 0.1 NW 67 89 36 48 - - 0.2
05/12:40pm -0.6 -15.8 -0.9 98 0.1 NW 69 87 37 47 - - 0.2
05/12:30pm -0.7 -18.0 -1.0 98 0.1 NNW 80 98 43 53 - - 0.2
05/12:00pm -1.0 -18.9 -1.3 98 0.1 NNW 83 102 45 55 - - 0.2
05/11:32am -1.1 -18.9 -1.4 98 0.1 NNW 82 100 44 54 - - 0.2
05/11:30am -1.2 -19.0 -1.5 98 0.1 NNW 82 98 44 53 - - 0.2
05/11:00am -1.5 -19.5 -1.8 98 0.0 NW 83 109 45 59 - - 0.2
05/10:30am -1.7 -18.0 -2.0 98 0.0 NNW 74 95 40 51 - - 0.0
05/10:22am -1.8 -17.2 -2.1 98 0.0 NNW 69 95 37 51 - - 0.0
05/10:21am -1.8 -16.8 -2.1 98 0.0 NNW 67 89 36 48 - - 0.0
05/10:07am -1.9 -15.4 -2.2 98 0.0 NW 59 89 32 48 - - 0.0
05/10:05am -2.0 -15.9 -2.3 98 0.0 NW 61 89 33 48 - - 0.0
05/10:00am -2.0 -17.6 -2.3 98 0.0 NNW 70 89 38 48 - - 0.0
05/09:40am -2.1 -19.2 -2.4 98 0.0 NW 78 100 42 54 - - 0.0
05/09:37am -2.2 -19.0 -2.5 98 0.0 NW 76 100 41 54 - - 0.0
05/09:30am -2.2 -16.5 -2.5 98 0.0 NW 63 95 34 51 - - 0.0
05/09:04am -2.5 -16.4 -2.8 98 0.0 NW 61 80 33 43 - - 0.0
05/09:00am -2.7 -17.8 -3.0 98 0.0 NW 67 95 36 51 - - 25.4
05/08:57am -2.7 -18.2 -3.0 98 0.0 NW 69 95 37 51 - - 25.4
05/08:35am -2.7 -19.9 -3.0 98 0.0 NNW 78 96 42 52 - - 25.4
05/08:30am -2.8 -20.4 -3.1 98 0.0 NNW 80 96 43 52 - - 25.4
05/08:06am -3.0 -17.4 -3.3 98 0.0 NW 63 89 34 48 - - 25.4
05/08:04am -2.8 -16.8 -3.1 98 0.0 NW 61 87 33 47 - - 25.4
05/08:00am -2.7 -17.8 -3.0 98 0.0 NW 67 96 36 52 - - 25.4
05/07:58am -2.7 -18.2 -3.0 98 0.0 NW 69 96 37 52 - - 25.4
05/07:30am -2.9 -20.1 -3.2 98 0.0 NNW 78 96 42 52 - - 25.4
05/07:00am -3.3 -19.1 -3.6 98 0.0 NW 70 96 38 52 - - 25.4
05/06:57am -3.4 -19.5 -3.7 98 -0.1 NW 72 96 39 52 - - 25.4
05/06:56am -3.4 -19.5 -3.7 98 -0.1 NW 72 96 39 52 - - 25.4
05/06:30am -3.2 -17.2 -3.5 98 0.0 NW 61 85 33 46 - - 25.4
05/06:15am -2.8 -17.2 -3.1 98 0.0 NW 63 85 34 46 - - 25.4
05/06:14am -2.8 -17.2 -3.1 98 0.0 NW 63 85 34 46 - - 25.4
05/06:00am -3.1 -20.7 -3.4 98 0.0 NNW 80 100 43 54 - - 25.4
05/05:54am -3.1 -21.1 -3.4 98 0.0 NNW 82 100 44 54 - - 25.4
05/05:30am -3.2 -21.8 -3.5 98 0.0 NW 85 100 46 54 - - 25.4
05/05:00am -3.1 -21.3 -3.4 98 0.0 NW 83 98 45 53 - - 25.4
05/04:49am -3.0 -20.6 -3.3 98 0.0 NW 80 104 43 56 - - 25.4
05/04:30am -2.5 -19.7 -2.8 98 0.0 NW 78 95 42 51 - - 25.4
05/04:00am -2.3 -18.3 -2.6 98 0.0 NW 72 93 39 50 - - 25.4
05/03:44am -2.3 -17.9 -2.6 98 0.0 NW 70 91 38 49 - - 25.2
05/03:38am -2.0 -15.1 -2.3 98 0.0 NW 57 83 31 45 - - 25.2
05/03:33am -2.1 -15.0 -2.4 98 0.0 NW 56 89 30 48 - - 25.2
05/03:30am -2.2 -15.4 -2.5 98 0.0 NW 57 89 31 48 - - 25.2
05/03:29am -2.3 -15.5 -2.6 98 0.0 NW 57 89 31 48 - - 25.2
05/03:00am -2.8 -18.5 -3.1 98 0.0 NW 70 98 38 53 - - 25.2
05/03:30am -2.3 -17.9 -2.6 98 0.0 NW 70 96 38 52 - - 25.2
05/03:00am -1.7 -16.3 -2.0 98 0.0 NNW 65 85 35 46 - - 25.2
05/02:36am -2.2 -17.3 -2.5 98 0.0 NW 67 85 36 46 - - 25.2
05/02:30am -2.5 -18.2 -2.8 98 0.0 NW 70 87 38 47 - - 25.2
05/02:00am -2.2 -16.5 -2.5 98 0.0 NNW 63 83 34 45 - - 25.2
05/01:30am -1.9 -15.8 -2.2 98 0.0 NNW 61 87 33 47 - - 25.2
05/01:29am -2.0 -15.9 -2.3 98 0.0 NNW 61 87 33 47 - - 25.2
05/01:27am -1.9 -15.8 -2.2 98 0.0 NNW 61 87 33 47 - - 25.2
05/01:00am -1.6 -12.0 -1.9 98 0.0 NW 43 70 23 38 - - 25.0
05/12:30am -1.4 -12.7 -1.7 98 0.0 WNW 48 80 26 43 - - 24.8
05/12:26am -1.7 -13.8 -2.0 98 0.0 WNW 52 80 28 43 - - 24.8
05/12:25am -1.6 -13.7 -1.9 98 0.0 NW 52 80 28 43 - - 24.8
05/12:03am -1.2 -16.5 -1.5 98 0.1 NNW 69 87 37 47 - - 24.8
05/12:00am -1.1 -15.6 -1.4 98 0.1 NNW 65 87 35 47 - - 24.8
 
Date/Time
EST
Temp
°C
App
Temp
°C
Dew
Point
°C
Rel
Hum
%
Delta-T
°C
Wind Press
QNH
hPa
Press
MSL
hPa
Rain since
9am
mm
Dir  Spd
km/h
Gust
km/h
Spd
kts
Gust
kts
04/11:58pm -1.1 -14.9 -1.4 98 0.1 NW 61 85 33 46 - - 24.8
04/11:30pm -0.6 -11.8 -0.9 98 0.1 NW 48 70 26 38 - - 24.0
04/11:03pm -0.8 -10.3 -1.1 98 0.1 NW 39 57 21 31 - - 23.6
04/11:00pm -0.8 -10.3 -1.1 98 0.1 NW 39 52 21 28 - - 23.6
04/10:30pm -0.9 -10.8 -1.2 98 0.1 NW 41 61 22 33 - - 23.4
04/10:00pm -1.0 -11.3 -1.3 98 0.1 NW 43 82 23 44 - - 23.4
04/09:30pm -1.0 -10.2 -1.3 98 0.1 NW 37 65 20 35 - - 23.2
04/09:00pm -0.8 -12.1 -1.1 98 0.1 NW 48 69 26 37 - - 23.0
04/08:30pm -0.8 -11.1 -1.1 98 0.1 WNW 43 65 23 35 - - 22.6
04/08:00pm -0.5 -11.0 -0.8 98 0.1 WNW 44 74 24 40 - - 21.6
04/07:30pm 0.0 -11.1 -0.3 98 0.1 NW 48 72 26 39 - - 20.6
04/07:00pm 0.0 -12.3 -0.3 98 0.1 NW 54 83 29 45 - - 20.4
04/06:30pm -0.2 -12.5 -0.5 98 0.1 NW 54 83 29 45 - - 20.4
04/06:00pm -0.1 -12.4 -0.4 98 0.1 WNW 54 87 29 47 - - 20.4
04/05:30pm 0.1 -12.6 -0.2 98 0.1 NW 56 82 30 44 - - 19.8
04/05:19pm 0.1 -12.7 -0.2 98 0.1 NW 57 91 31 49 - - 19.4
04/05:00pm 0.3 -10.4 0.0 98 0.1 NW 46 74 25 40 - - 18.8
04/04:47pm 0.4 -12.2 0.1 98 0.1 NW 56 93 30 50 - - 18.4
04/04:30pm 0.4 -11.1 0.1 98 0.1 NW 50 74 27 40 - - 17.8
04/04:00pm 0.3 -11.2 0.0 98 0.1 WNW 50 72 27 39 - - 16.4
04/03:47pm 0.2 -10.2 -0.1 98 0.1 WNW 44 80 24 43 - - 15.6
04/03:30pm 0.1 -8.9 -0.2 98 0.1 WNW 37 61 20 33 - - 13.8
04/03:14pm 0.3 -7.0 0.0 98 0.1 WNW 28 46 15 25 - - 12.4
04/03:00pm 0.1 -8.2 -0.2 98 0.1 WNW 33 48 18 26 - - 11.4
04/02:32pm 0.1 -9.7 -0.2 98 0.1 NW 41 59 22 32 - - 9.6
04/02:30pm 0.1 -10.1 -0.2 98 0.1 NW 43 59 23 32 - - 9.4
04/02:00pm 0.3 -10.8 0.0 98 0.1 NW 48 74 26 40 - - 8.8
04/01:30pm 0.7 -9.6 0.4 98 0.1 NW 44 80 24 43 - - 8.4
04/01:00pm 0.6 -10.5 0.3 98 0.1 NW 48 76 26 41 - - 8.0
04/12:30pm 0.5 -12.7 0.2 98 0.1 NW 59 89 32 48 - - 7.4
04/12:25pm 0.4 -13.9 0.1 98 0.1 NW 65 95 35 51 - - 7.4
04/12:13pm 0.5 -14.6 0.2 98 0.1 NW 69 102 37 55 - - 7.4
04/12:00pm 1.0 -11.1 0.7 98 0.1 NW 54 83 29 45 - - 7.0
04/11:30am 1.8 -11.2 1.5 98 0.1 NW 59 93 32 50 - - 6.0
04/11:00am 2.0 -12.1 1.7 98 0.1 NW 65 89 35 48 - - 5.4
04/10:50am 2.2 -12.8 1.9 98 0.1 NW 70 95 38 51 - - 5.4
04/10:48am 2.4 -12.6 2.1 98 0.1 NW 70 95 38 51 - - 5.4
04/10:45am 2.4 -12.0 2.1 98 0.1 NW 67 95 36 51 - - 5.4
04/10:40am 2.5 -11.1 2.2 98 0.1 NW 63 100 34 54 - - 5.4
04/10:35am 2.5 -13.6 2.2 98 0.1 NW 76 109 41 59 - - 5.4
04/10:30am 2.5 -12.8 2.2 98 0.1 NW 72 109 39 59 - - 5.4
04/10:25am 2.8 -9.0 2.5 98 0.1 NW 54 100 29 54 - - 5.2
04/10:24am 2.8 -8.3 2.5 98 0.1 NW 50 100 27 54 - - 5.2
04/10:00am 2.8 -7.9 2.5 98 0.1 NW 48 70 26 38 - - 0.8

Latest Capital City Observations: Canberra | Sydney | Melbourne | Brisbane | Adelaide | Perth | Hobart | Darwin

Other formats

Comma delimited format used in spreadsheet applications
http://www.bom.gov.au/fwo/IDN60903/IDN60903.95909.axf

JavaScript Object Notation format (JSON) in row-major order
http://www.bom.gov.au/fwo/IDN60903/IDN60903.95909.json

Data quality

Most of these data are generated automatically and are frequently updated. Quality checks on data are not normally performed. It is possible for incorrect values to appear. Refer to information at About Latest Weather Observations and please check the disclaimer before using these data.